KIMT/IMT METAR and TAF weather

Enter ICAO airport designator
Station Type Date Time Source
KIMT METAR 2018/12/10 12:54 UTC NOAA

KIMT 101254Z AUTO 00000KT 7SM CLR M14/M17 A3007 RMK AO2 SLP210 T11441172


Station Type Date Time Source
KIMT Decoded METAR 2018/12/10 12:54 UTC NOAA

IRON MOUNTAIN FORD AIRPORT, MI, United States (KIMT) 45-49N 88-07W 349M
Dec 10, 2018 - 07:54 AM EST / 2018.12.10 1254 UTC
Wind: Calm:0
Visibility: 7 mile(s):0
Sky conditions: clear
Temperature: 6.1 F (-14.4 C)
Dew Point: 1.0 F (-17.2 C)
Relative Humidity: 79%
Pressure (altimeter): 30.07 in. Hg (1018 hPa)
ob: KIMT 101254Z AUTO 00000KT 7SM CLR M14/M17 A3007 RMK AO2 SLP210 T11441172
cycle: 13

Station Type Date Time Source
KIMT TAF UTC NOAA

Error!


Example: see airport list